createdAt,value
2023-04-22T00:00:00.334Z,1012
2023-04-22T00:04:00.638Z,1012
2023-04-22T00:08:00.355Z,1012
2023-04-22T00:12:00.348Z,1012
2023-04-22T00:16:00.401Z,1012
2023-04-22T00:20:00.348Z,1012
2023-04-22T00:24:00.347Z,1012
2023-04-22T00:28:00.355Z,1012
2023-04-22T00:32:00.344Z,1012
2023-04-22T00:36:00.373Z,1012
2023-04-22T00:40:00.342Z,1012
2023-04-22T00:44:00.347Z,1012
2023-04-22T00:48:01.393Z,1012
2023-04-22T00:52:00.357Z,1012
2023-04-22T00:56:00.327Z,1012
2023-04-22T01:00:00.442Z,1012
2023-04-22T01:04:00.528Z,1012
2023-04-22T01:08:00.354Z,1012
2023-04-22T01:12:00.332Z,1012
2023-04-22T01:16:00.342Z,1012
2023-04-22T01:20:00.366Z,1012
2023-04-22T01:24:00.362Z,1012
2023-04-22T01:28:00.433Z,1012
2023-04-22T01:32:00.416Z,1012
2023-04-22T01:36:00.357Z,1012
2023-04-22T01:40:00.356Z,1012
2023-04-22T01:44:00.368Z,1012
2023-04-22T01:48:00.404Z,1012
2023-04-22T01:52:00.372Z,1011
2023-04-22T01:56:00.378Z,1011
2023-04-22T02:00:00.359Z,1011
2023-04-22T02:04:00.348Z,1011
2023-04-22T02:08:00.351Z,1011
2023-04-22T02:12:00.357Z,1011
2023-04-22T02:16:00.374Z,1011
2023-04-22T02:20:00.499Z,1011
2023-04-22T02:24:00.353Z,1011
2023-04-22T02:28:00.351Z,1011
2023-04-22T02:32:00.346Z,1011
2023-04-22T02:36:00.369Z,1011
2023-04-22T02:40:00.332Z,1011
2023-04-22T02:44:00.360Z,1011
2023-04-22T02:48:00.388Z,1011
2023-04-22T02:52:00.356Z,1011
2023-04-22T02:56:00.325Z,1011
2023-04-22T03:00:00.353Z,1011
2023-04-22T03:04:00.822Z,1011
2023-04-22T03:08:00.350Z,1011
2023-04-22T03:12:00.351Z,1011
2023-04-22T03:16:00.382Z,1011
2023-04-22T03:20:00.370Z,1011
2023-04-22T03:24:00.380Z,1011
2023-04-22T03:28:00.347Z,1011
2023-04-22T03:32:00.390Z,1011
2023-04-22T03:36:00.363Z,1011
2023-04-22T03:40:00.596Z,1011
2023-04-22T03:44:01.807Z,1011
2023-04-22T03:48:00.470Z,1011
2023-04-22T03:52:00.438Z,1011
2023-04-22T03:56:00.364Z,1011
2023-04-22T04:00:00.357Z,1011
2023-04-22T04:04:00.612Z,1011
2023-04-22T04:08:00.352Z,1011
2023-04-22T04:12:00.371Z,1011
2023-04-22T04:16:00.537Z,1011
2023-04-22T04:20:00.370Z,1011
2023-04-22T04:24:00.366Z,1011
2023-04-22T04:28:00.348Z,1011
2023-04-22T04:32:00.356Z,1011
2023-04-22T04:36:00.329Z,1011
2023-04-22T04:40:00.378Z,1011
2023-04-22T04:44:00.335Z,1011
2023-04-22T04:48:00.434Z,1011
2023-04-22T04:52:01.331Z,1011
2023-04-22T04:56:00.379Z,1011
2023-04-22T05:00:00.359Z,1011
2023-04-22T05:04:00.547Z,1011
2023-04-22T05:08:00.371Z,1011
2023-04-22T05:12:00.351Z,1011
2023-04-22T05:16:00.387Z,1011
2023-04-22T05:20:00.358Z,1011
2023-04-22T05:24:00.371Z,1011
2023-04-22T05:28:00.360Z,1011
2023-04-22T05:32:00.418Z,1011
2023-04-22T05:36:00.356Z,1011
2023-04-22T05:40:00.363Z,1011
2023-04-22T05:44:00.389Z,1011
2023-04-22T05:48:00.409Z,1011
2023-04-22T05:52:00.374Z,1011
2023-04-22T05:56:00.362Z,1011
2023-04-22T06:00:00.361Z,1011
2023-04-22T06:04:00.774Z,1011
2023-04-22T06:08:00.371Z,1011
2023-04-22T06:12:00.322Z,1011
2023-04-22T06:16:00.387Z,1011
2023-04-22T06:20:00.368Z,1011
2023-04-22T06:24:00.355Z,1011
2023-04-22T06:28:00.369Z,1011
2023-04-22T06:32:00.365Z,1011
2023-04-22T06:36:00.387Z,1011
2023-04-22T06:40:00.344Z,1011
2023-04-22T06:44:00.383Z,1011
2023-04-22T06:48:00.443Z,1011
2023-04-22T06:52:00.344Z,1011
2023-04-22T06:56:00.345Z,1011
2023-04-22T07:00:00.365Z,1011
2023-04-22T07:04:00.362Z,1011
2023-04-22T07:08:00.352Z,1011
2023-04-22T07:12:00.366Z,1011
2023-04-22T07:16:00.429Z,1011
2023-04-22T07:20:00.367Z,1011
2023-04-22T07:24:00.367Z,1011
2023-04-22T07:28:00.392Z,1011
2023-04-22T07:32:00.420Z,1011
2023-04-22T07:36:00.384Z,1011
2023-04-22T07:40:00.348Z,1011
2023-04-22T07:44:00.402Z,1011
2023-04-22T07:48:00.391Z,1011
2023-04-22T07:52:00.385Z,1011
2023-04-22T07:56:02.094Z,1011
2023-04-22T08:00:00.380Z,1011
2023-04-22T08:04:00.605Z,1011
2023-04-22T08:08:00.370Z,1011
2023-04-22T08:12:00.406Z,1010
2023-04-22T08:16:00.398Z,1010
2023-04-22T08:20:00.361Z,1010
2023-04-22T08:24:00.361Z,1010
2023-04-22T08:28:00.352Z,1010
2023-04-22T08:32:00.353Z,1010
2023-04-22T08:36:00.374Z,1010
2023-04-22T08:40:00.356Z,1010
2023-04-22T08:44:00.381Z,1010
2023-04-22T08:48:00.388Z,1010
2023-04-22T08:52:00.350Z,1010
2023-04-22T08:56:00.383Z,1010
2023-04-22T09:00:00.343Z,1010
2023-04-22T09:04:00.540Z,1010
2023-04-22T09:08:00.340Z,1010
2023-04-22T09:12:00.352Z,1010
2023-04-22T09:16:00.418Z,1010
2023-04-22T09:20:00.364Z,1010
2023-04-22T09:24:00.365Z,1010
2023-04-22T09:28:00.361Z,1010
2023-04-22T09:32:00.433Z,1010
2023-04-22T09:36:00.363Z,1010
2023-04-22T09:40:00.394Z,1010
2023-04-22T09:44:00.373Z,1010
2023-04-22T09:48:00.446Z,1010
2023-04-22T09:52:00.423Z,1010
2023-04-22T09:56:00.376Z,1010
2023-04-22T10:00:00.413Z,1010
2023-04-22T10:04:00.389Z,1009
2023-04-22T10:08:00.447Z,1009
2023-04-22T10:12:00.338Z,1009
2023-04-22T10:16:00.387Z,1009
2023-04-22T10:20:00.330Z,1009
2023-04-22T10:24:00.712Z,1009
2023-04-22T10:28:00.367Z,1009
2023-04-22T10:32:00.354Z,1009
2023-04-22T10:36:00.345Z,1009
2023-04-22T10:40:00.337Z,1009
2023-04-22T10:44:00.372Z,1009
2023-04-22T10:48:00.401Z,1009
2023-04-22T10:52:00.373Z,1009
2023-04-22T10:56:00.372Z,1009
2023-04-22T11:00:00.349Z,1009
2023-04-22T11:04:00.422Z,1009
2023-04-22T11:08:00.389Z,1009
2023-04-22T11:12:00.347Z,1009
2023-04-22T11:16:00.398Z,1009
2023-04-22T11:20:00.348Z,1009
2023-04-22T11:24:00.360Z,1009
2023-04-22T11:28:00.326Z,1009
2023-04-22T11:32:00.470Z,1008
2023-04-22T11:36:00.349Z,1008
2023-04-22T11:40:13.717Z,1008
2023-04-22T11:44:00.361Z,1009
2023-04-22T11:48:00.387Z,1008
2023-04-22T11:52:00.393Z,1008
2023-04-22T11:56:00.357Z,1008
2023-04-22T12:00:00.354Z,1008
2023-04-22T12:04:00.598Z,1008
2023-04-22T12:08:00.359Z,1008
2023-04-22T12:12:00.367Z,1008
2023-04-22T12:16:00.348Z,1008
2023-04-22T12:20:00.363Z,1008
2023-04-22T12:24:00.373Z,1008
2023-04-22T12:28:00.342Z,1008
2023-04-22T12:32:00.374Z,1008
2023-04-22T12:36:00.365Z,1008
2023-04-22T12:40:00.384Z,1008
2023-04-22T12:44:00.370Z,1008
2023-04-22T12:48:00.401Z,1008
2023-04-22T12:52:00.384Z,1008
2023-04-22T12:56:00.335Z,1008
2023-04-22T13:00:00.380Z,1008
2023-04-22T13:04:00.531Z,1008
2023-04-22T13:08:07.297Z,1008
2023-04-22T13:12:00.362Z,1008
2023-04-22T13:16:00.403Z,1008
2023-04-22T13:20:00.340Z,1007
2023-04-22T13:24:00.351Z,1007
2023-04-22T13:28:00.362Z,1007
2023-04-22T13:32:00.365Z,1007
2023-04-22T13:36:00.349Z,1007
2023-04-22T13:40:00.356Z,1007
2023-04-22T13:44:00.348Z,1007
2023-04-22T13:48:00.434Z,1007
2023-04-22T13:52:00.334Z,1007
2023-04-22T13:56:00.370Z,1007
2023-04-22T14:00:00.349Z,1007
2023-04-22T14:04:00.548Z,1007
2023-04-22T14:08:00.352Z,1007
2023-04-22T14:12:00.351Z,1007
2023-04-22T14:16:00.340Z,1007
2023-04-22T14:20:00.366Z,1007
2023-04-22T14:24:00.337Z,1007
2023-04-22T14:28:00.370Z,1007
2023-04-22T14:32:00.351Z,1007
2023-04-22T14:36:00.402Z,1007
2023-04-22T14:40:00.380Z,1007
2023-04-22T14:44:00.371Z,1006
2023-04-22T14:48:00.395Z,1006
2023-04-22T14:52:00.360Z,1006
2023-04-22T14:56:00.357Z,1006
2023-04-22T15:00:00.368Z,1006
2023-04-22T15:04:00.434Z,1006
2023-04-22T15:08:00.354Z,1006
2023-04-22T15:12:00.363Z,1006
2023-04-22T15:16:00.368Z,1006
2023-04-22T15:20:00.328Z,1006
2023-04-22T15:24:00.377Z,1006
2023-04-22T15:28:00.368Z,1006
2023-04-22T15:32:00.423Z,1006
2023-04-22T15:36:00.332Z,1006
2023-04-22T15:40:00.360Z,1006
2023-04-22T15:44:00.339Z,1006
2023-04-22T15:48:00.397Z,1006
2023-04-22T15:52:00.330Z,1006
2023-04-22T15:56:00.376Z,1006
2023-04-22T16:00:10.079Z,1006
2023-04-22T16:04:00.491Z,1006
2023-04-22T16:08:00.347Z,1006
2023-04-22T16:12:00.351Z,1006
2023-04-22T16:16:00.395Z,1006
2023-04-22T16:20:00.398Z,1006
2023-04-22T16:24:00.368Z,1006
2023-04-22T16:28:00.366Z,1005
2023-04-22T16:32:00.333Z,1006
2023-04-22T16:36:00.336Z,1006
2023-04-22T16:40:00.350Z,1006
2023-04-22T16:44:00.348Z,1006
2023-04-22T16:48:00.372Z,1006
2023-04-22T16:52:00.349Z,1005
2023-04-22T16:56:00.347Z,1005
2023-04-22T17:00:00.344Z,1005
2023-04-22T17:04:00.560Z,1005
2023-04-22T17:08:00.344Z,1005
2023-04-22T17:12:00.357Z,1005
2023-04-22T17:16:00.399Z,1005
2023-04-22T17:20:00.336Z,1005
2023-04-22T17:24:00.382Z,1005
2023-04-22T17:28:00.375Z,1005
2023-04-22T17:32:00.339Z,1005
2023-04-22T17:36:00.376Z,1005
2023-04-22T17:40:00.379Z,1005
2023-04-22T17:44:00.339Z,1005
2023-04-22T17:48:00.423Z,1005
2023-04-22T17:52:00.354Z,1005
2023-04-22T17:56:00.386Z,1005
2023-04-22T18:00:00.357Z,1005
2023-04-22T18:04:00.579Z,1005
2023-04-22T18:08:00.373Z,1006
2023-04-22T18:12:00.363Z,1006
2023-04-22T18:16:00.371Z,1006
2023-04-22T18:20:13.838Z,1006
2023-04-22T18:24:00.389Z,1006
2023-04-22T18:28:00.373Z,1006
2023-04-22T18:32:00.410Z,1006
2023-04-22T18:36:00.385Z,1006
2023-04-22T18:40:00.392Z,1006
2023-04-22T18:44:00.642Z,1006
2023-04-22T18:48:00.499Z,1006
2023-04-22T18:52:00.351Z,1006
2023-04-22T18:56:00.349Z,1006
2023-04-22T19:00:00.351Z,1006
2023-04-22T19:04:00.427Z,1006
2023-04-22T19:08:00.361Z,1006
2023-04-22T19:12:00.336Z,1006
2023-04-22T19:16:00.378Z,1006
2023-04-22T19:20:00.368Z,1006
2023-04-22T19:24:00.338Z,1006
2023-04-22T19:28:00.374Z,1006
2023-04-22T19:32:00.350Z,1006
2023-04-22T19:36:00.351Z,1006
2023-04-22T19:40:00.329Z,1006
2023-04-22T19:44:00.373Z,1006
2023-04-22T19:48:00.341Z,1006
2023-04-22T19:52:00.360Z,1006
2023-04-22T19:56:00.331Z,1006
2023-04-22T20:00:00.361Z,1006
2023-04-22T20:04:00.391Z,1006
2023-04-22T20:08:00.354Z,1005
2023-04-22T20:12:00.364Z,1005
2023-04-22T20:16:00.415Z,1005
2023-04-22T20:20:00.377Z,1005
2023-04-22T20:24:00.357Z,1005
2023-04-22T20:28:00.356Z,1005
2023-04-22T20:32:00.427Z,1005
2023-04-22T20:36:00.352Z,1005
2023-04-22T20:40:00.378Z,1005
2023-04-22T20:44:00.349Z,1005
2023-04-22T20:48:00.436Z,1005
2023-04-22T20:52:00.348Z,1005
2023-04-22T20:56:00.374Z,1005
2023-04-22T21:00:00.335Z,1005
2023-04-22T21:04:00.555Z,1005
2023-04-22T21:08:00.352Z,1005
2023-04-22T21:12:00.375Z,1005
2023-04-22T21:16:00.379Z,1005
2023-04-22T21:20:00.362Z,1005
2023-04-22T21:24:00.361Z,1005
2023-04-22T21:28:00.354Z,1005
2023-04-22T21:32:08.719Z,1005
2023-04-22T21:36:00.349Z,1005
2023-04-22T21:40:00.356Z,1005
2023-04-22T21:44:00.344Z,1005
2023-04-22T21:48:00.434Z,1005
2023-04-22T21:52:00.347Z,1005
2023-04-22T21:56:00.342Z,1005
2023-04-22T22:00:00.331Z,1005
2023-04-22T22:04:00.444Z,1005
2023-04-22T22:08:00.347Z,1005
2023-04-22T22:12:00.346Z,1005
2023-04-22T22:16:00.395Z,1005
2023-04-22T22:20:00.357Z,1005
2023-04-22T22:24:00.426Z,1005
2023-04-22T22:28:00.350Z,1005
2023-04-22T22:32:00.437Z,1005
2023-04-22T22:36:00.329Z,1005
2023-04-22T22:40:00.364Z,1005
2023-04-22T22:44:00.343Z,1005
2023-04-22T22:48:00.400Z,1005
2023-04-22T22:52:00.358Z,1005
2023-04-22T22:56:00.350Z,1005
2023-04-22T23:00:00.388Z,1005
2023-04-22T23:04:00.588Z,1005
2023-04-22T23:08:00.349Z,1005
2023-04-22T23:12:00.357Z,1005
2023-04-22T23:16:00.364Z,1005
2023-04-22T23:20:00.342Z,1005
2023-04-22T23:24:00.370Z,1005
2023-04-22T23:28:00.355Z,1005
2023-04-22T23:32:00.369Z,1005
2023-04-22T23:36:00.365Z,1005
2023-04-22T23:40:00.369Z,1004
2023-04-22T23:44:00.364Z,1004
2023-04-22T23:48:00.382Z,1004
2023-04-22T23:52:00.350Z,1004
2023-04-22T23:56:00.366Z,1004
